sensor_id;sensor_type;location;lat;lon;timestamp;pressure;altitude;pressure_sealevel;temperature
76901;BMP280;65859;43.020;25.096;2024-02-26T00:00:18;98862.72;;;8.80
76901;BMP280;65859;43.020;25.096;2024-02-26T00:02:45;98857.72;;;8.79
76901;BMP280;65859;43.020;25.096;2024-02-26T00:05:11;98853.41;;;8.83
76901;BMP280;65859;43.020;25.096;2024-02-26T00:07:38;98859.47;;;8.75
76901;BMP280;65859;43.020;25.096;2024-02-26T00:10:05;98853.00;;;9.31
76901;BMP280;65859;43.020;25.096;2024-02-26T00:12:31;98860.38;;;9.17
76901;BMP280;65859;43.020;25.096;2024-02-26T00:14:58;98852.53;;;9.29
76901;BMP280;65859;43.020;25.096;2024-02-26T00:17:24;98852.16;;;8.80
76901;BMP280;65859;43.020;25.096;2024-02-26T00:19:51;98854.97;;;8.75
76901;BMP280;65859;43.020;25.096;2024-02-26T00:22:17;98845.84;;;8.94
76901;BMP280;65859;43.020;25.096;2024-02-26T00:24:43;98843.75;;;9.08
76901;BMP280;65859;43.020;25.096;2024-02-26T00:27:09;98845.84;;;9.32
76901;BMP280;65859;43.020;25.096;2024-02-26T00:29:35;98854.91;;;8.93
76901;BMP280;65859;43.020;25.096;2024-02-26T00:32:02;98852.16;;;8.72
76901;BMP280;65859;43.020;25.096;2024-02-26T00:34:28;98843.16;;;8.73
76901;BMP280;65859;43.020;25.096;2024-02-26T00:36:54;98842.25;;;8.60
76901;BMP280;65859;43.020;25.096;2024-02-26T00:39:21;98845.66;;;8.60
76901;BMP280;65859;43.020;25.096;2024-02-26T00:41:48;98843.34;;;8.59
76901;BMP280;65859;43.020;25.096;2024-02-26T00:44:14;98840.34;;;9.07
76901;BMP280;65859;43.020;25.096;2024-02-26T00:46:40;98838.31;;;9.13
76901;BMP280;65859;43.020;25.096;2024-02-26T00:49:06;98839.38;;;9.41
76901;BMP280;65859;43.020;25.096;2024-02-26T00:51:33;98836.28;;;9.10
76901;BMP280;65859;43.020;25.096;2024-02-26T00:53:59;98836.59;;;9.08
76901;BMP280;65859;43.020;25.096;2024-02-26T00:56:25;98832.25;;;9.12
76901;BMP280;65859;43.020;25.096;2024-02-26T00:58:51;98833.53;;;9.06
76901;BMP280;65859;43.020;25.096;2024-02-26T01:01:18;98828.25;;;8.59
76901;BMP280;65859;43.020;25.096;2024-02-26T01:03:44;98829.59;;;8.83
76901;BMP280;65859;43.020;25.096;2024-02-26T01:06:10;98822.50;;;8.57
76901;BMP280;65859;43.020;25.096;2024-02-26T01:08:36;98819.06;;;8.66
76901;BMP280;65859;43.020;25.096;2024-02-26T01:11:04;98824.78;;;8.68
76901;BMP280;65859;43.020;25.096;2024-02-26T01:13:30;98816.28;;;8.62
76901;BMP280;65859;43.020;25.096;2024-02-26T01:15:57;98819.16;;;9.07
76901;BMP280;65859;43.020;25.096;2024-02-26T01:18:23;98816.38;;;9.12
76901;BMP280;65859;43.020;25.096;2024-02-26T01:20:49;98819.41;;;8.55
76901;BMP280;65859;43.020;25.096;2024-02-26T01:23:15;98818.47;;;8.51
76901;BMP280;65859;43.020;25.096;2024-02-26T01:25:41;98811.81;;;8.54
76901;BMP280;65859;43.020;25.096;2024-02-26T01:28:09;98806.13;;;9.02
76901;BMP280;65859;43.020;25.096;2024-02-26T01:30:35;98802.47;;;8.95
76901;BMP280;65859;43.020;25.096;2024-02-26T01:33:01;98795.53;;;9.32
76901;BMP280;65859;43.020;25.096;2024-02-26T01:35:27;98799.84;;;9.57
76901;BMP280;65859;43.020;25.096;2024-02-26T01:37:53;98801.63;;;9.44
76901;BMP280;65859;43.020;25.096;2024-02-26T01:40:20;98802.19;;;9.38
76901;BMP280;65859;43.020;25.096;2024-02-26T01:42:47;98803.84;;;8.92
76901;BMP280;65859;43.020;25.096;2024-02-26T01:45:17;98792.06;;;9.10
76901;BMP280;65859;43.020;25.096;2024-02-26T01:47:53;98796.22;;;9.41
76901;BMP280;65859;43.020;25.096;2024-02-26T01:50:20;98800.69;;;9.49
76901;BMP280;65859;43.020;25.096;2024-02-26T01:52:49;98798.66;;;9.25
76901;BMP280;65859;43.020;25.096;2024-02-26T01:55:19;98799.44;;;9.26
76901;BMP280;65859;43.020;25.096;2024-02-26T01:57:48;98798.72;;;9.37
76901;BMP280;65859;43.020;25.096;2024-02-26T02:00:15;98805.38;;;9.23
76901;BMP280;65859;43.020;25.096;2024-02-26T02:02:42;98792.88;;;8.43
76901;BMP280;65859;43.020;25.096;2024-02-26T02:05:12;98791.19;;;9.06
76901;BMP280;65859;43.020;25.096;2024-02-26T02:07:39;98795.44;;;8.90
76901;BMP280;65859;43.020;25.096;2024-02-26T02:10:07;98794.22;;;8.49
76901;BMP280;65859;43.020;25.096;2024-02-26T02:12:33;98802.41;;;9.03
76901;BMP280;65859;43.020;25.096;2024-02-26T02:15:01;98799.53;;;9.08
76901;BMP280;65859;43.020;25.096;2024-02-26T02:17:28;98810.66;;;8.63
76901;BMP280;65859;43.020;25.096;2024-02-26T02:19:54;98809.09;;;9.01
76901;BMP280;65859;43.020;25.096;2024-02-26T02:22:21;98803.25;;;9.37
76901;BMP280;65859;43.020;25.096;2024-02-26T02:24:48;98800.56;;;9.45
76901;BMP280;65859;43.020;25.096;2024-02-26T02:27:15;98801.41;;;9.79
76901;BMP280;65859;43.020;25.096;2024-02-26T02:29:41;98803.81;;;9.63
76901;BMP280;65859;43.020;25.096;2024-02-26T02:32:08;98812.19;;;9.53
76901;BMP280;65859;43.020;25.096;2024-02-26T02:34:35;98801.78;;;9.48
76901;BMP280;65859;43.020;25.096;2024-02-26T02:37:01;98811.84;;;9.55
76901;BMP280;65859;43.020;25.096;2024-02-26T02:39:27;98808.41;;;9.42
76901;BMP280;65859;43.020;25.096;2024-02-26T02:41:53;98809.53;;;9.32
76901;BMP280;65859;43.020;25.096;2024-02-26T02:44:20;98815.09;;;9.39
76901;BMP280;65859;43.020;25.096;2024-02-26T02:46:47;98810.19;;;9.50
76901;BMP280;65859;43.020;25.096;2024-02-26T02:49:14;98811.34;;;9.61
76901;BMP280;65859;43.020;25.096;2024-02-26T02:51:40;98813.41;;;9.56
76901;BMP280;65859;43.020;25.096;2024-02-26T02:54:06;98818.69;;;9.14
76901;BMP280;65859;43.020;25.096;2024-02-26T02:56:33;98827.84;;;8.78
76901;BMP280;65859;43.020;25.096;2024-02-26T02:58:59;98824.81;;;8.59
76901;BMP280;65859;43.020;25.096;2024-02-26T03:01:25;98811.16;;;8.48
76901;BMP280;65859;43.020;25.096;2024-02-26T03:03:51;98834.84;;;8.45
76901;BMP280;65859;43.020;25.096;2024-02-26T03:06:18;98838.25;;;8.54
76901;BMP280;65859;43.020;25.096;2024-02-26T03:08:44;98840.22;;;8.66
76901;BMP280;65859;43.020;25.096;2024-02-26T03:11:14;98842.59;;;8.50
76901;BMP280;65859;43.020;25.096;2024-02-26T03:13:41;98837.59;;;8.66
76901;BMP280;65859;43.020;25.096;2024-02-26T03:16:07;98835.38;;;8.76
76901;BMP280;65859;43.020;25.096;2024-02-26T03:18:35;98832.63;;;8.55
76901;BMP280;65859;43.020;25.096;2024-02-26T03:21:01;98836.13;;;8.77
76901;BMP280;65859;43.020;25.096;2024-02-26T03:23:28;98838.16;;;9.09
76901;BMP280;65859;43.020;25.096;2024-02-26T03:25:55;98835.78;;;8.78
76901;BMP280;65859;43.020;25.096;2024-02-26T03:28:22;98829.69;;;8.48
76901;BMP280;65859;43.020;25.096;2024-02-26T03:30:48;98822.28;;;8.71
76901;BMP280;65859;43.020;25.096;2024-02-26T03:33:14;98833.72;;;8.54
76901;BMP280;65859;43.020;25.096;2024-02-26T03:35:40;98827.13;;;8.69
76901;BMP280;65859;43.020;25.096;2024-02-26T03:38:06;98820.75;;;8.70
76901;BMP280;65859;43.020;25.096;2024-02-26T03:40:33;98808.50;;;8.66
76901;BMP280;65859;43.020;25.096;2024-02-26T03:42:59;98816.25;;;9.00
76901;BMP280;65859;43.020;25.096;2024-02-26T03:45:25;98814.88;;;8.64
76901;BMP280;65859;43.020;25.096;2024-02-26T03:47:52;98825.81;;;8.37
76901;BMP280;65859;43.020;25.096;2024-02-26T03:50:19;98817.44;;;8.82
76901;BMP280;65859;43.020;25.096;2024-02-26T03:52:45;98809.16;;;8.54
76901;BMP280;65859;43.020;25.096;2024-02-26T03:55:11;98801.00;;;8.76
76901;BMP280;65859;43.020;25.096;2024-02-26T03:57:38;98801.47;;;8.99
76901;BMP280;65859;43.020;25.096;2024-02-26T04:00:04;98800.97;;;9.27
76901;BMP280;65859;43.020;25.096;2024-02-26T04:02:30;98816.47;;;8.95
76901;BMP280;65859;43.020;25.096;2024-02-26T04:04:57;98810.13;;;9.08
76901;BMP280;65859;43.020;25.096;2024-02-26T04:07:23;98816.88;;;9.06
76901;BMP280;65859;43.020;25.096;2024-02-26T04:09:49;98811.56;;;9.06
76901;BMP280;65859;43.020;25.096;2024-02-26T04:12:15;98818.63;;;8.93
76901;BMP280;65859;43.020;25.096;2024-02-26T04:14:41;98810.38;;;8.95
76901;BMP280;65859;43.020;25.096;2024-02-26T04:17:08;98801.72;;;9.15
76901;BMP280;65859;43.020;25.096;2024-02-26T04:19:34;98801.06;;;9.18
76901;BMP280;65859;43.020;25.096;2024-02-26T04:22:02;98795.69;;;9.27
76901;BMP280;65859;43.020;25.096;2024-02-26T04:24:28;98798.66;;;9.04
76901;BMP280;65859;43.020;25.096;2024-02-26T04:26:54;98804.69;;;8.84
76901;BMP280;65859;43.020;25.096;2024-02-26T04:29:21;98809.16;;;8.92
76901;BMP280;65859;43.020;25.096;2024-02-26T04:31:47;98800.53;;;9.04
76901;BMP280;65859;43.020;25.096;2024-02-26T04:34:14;98800.22;;;8.67
76901;BMP280;65859;43.020;25.096;2024-02-26T04:36:40;98798.09;;;8.90
76901;BMP280;65859;43.020;25.096;2024-02-26T04:39:06;98793.03;;;8.68
76901;BMP280;65859;43.020;25.096;2024-02-26T04:41:33;98791.53;;;8.96
76901;BMP280;65859;43.020;25.096;2024-02-26T04:43:59;98797.22;;;8.77
76901;BMP280;65859;43.020;25.096;2024-02-26T04:46:25;98802.19;;;8.79
76901;BMP280;65859;43.020;25.096;2024-02-26T04:48:51;98798.97;;;8.73
76901;BMP280;65859;43.020;25.096;2024-02-26T04:51:18;98797.03;;;8.82
76901;BMP280;65859;43.020;25.096;2024-02-26T04:53:45;98772.69;;;8.98
76901;BMP280;65859;43.020;25.096;2024-02-26T04:56:11;98795.34;;;8.86
76901;BMP280;65859;43.020;25.096;2024-02-26T04:58:38;98799.78;;;9.24
76901;BMP280;65859;43.020;25.096;2024-02-26T05:01:04;98795.97;;;9.13
76901;BMP280;65859;43.020;25.096;2024-02-26T05:03:30;98798.56;;;9.42
76901;BMP280;65859;43.020;25.096;2024-02-26T05:05:57;98801.91;;;9.52
76901;BMP280;65859;43.020;25.096;2024-02-26T05:08:24;98800.47;;;9.12
76901;BMP280;65859;43.020;25.096;2024-02-26T05:10:50;98803.75;;;9.09
76901;BMP280;65859;43.020;25.096;2024-02-26T05:13:16;98804.94;;;8.91
76901;BMP280;65859;43.020;25.096;2024-02-26T05:15:44;98811.88;;;9.04
76901;BMP280;65859;43.020;25.096;2024-02-26T05:18:12;98806.38;;;9.39
76901;BMP280;65859;43.020;25.096;2024-02-26T05:20:39;98804.38;;;9.57
76901;BMP280;65859;43.020;25.096;2024-02-26T05:23:05;98804.75;;;9.47
76901;BMP280;65859;43.020;25.096;2024-02-26T05:25:32;98808.38;;;9.21
76901;BMP280;65859;43.020;25.096;2024-02-26T05:27:59;98805.66;;;9.00
76901;BMP280;65859;43.020;25.096;2024-02-26T05:30:25;98817.19;;;9.25
76901;BMP280;65859;43.020;25.096;2024-02-26T05:32:54;98813.84;;;9.37
76901;BMP280;65859;43.020;25.096;2024-02-26T05:35:20;98825.53;;;9.36
76901;BMP280;65859;43.020;25.096;2024-02-26T05:37:46;98836.34;;;9.52
76901;BMP280;65859;43.020;25.096;2024-02-26T05:40:12;98824.13;;;9.38
76901;BMP280;65859;43.020;25.096;2024-02-26T05:42:39;98827.09;;;9.37
76901;BMP280;65859;43.020;25.096;2024-02-26T05:45:06;98827.09;;;9.37
76901;BMP280;65859;43.020;25.096;2024-02-26T05:47:35;98817.25;;;9.16
76901;BMP280;65859;43.020;25.096;2024-02-26T05:50:02;98826.19;;;9.54
76901;BMP280;65859;43.020;25.096;2024-02-26T05:52:28;98820.00;;;9.70
76901;BMP280;65859;43.020;25.096;2024-02-26T05:54:58;98829.91;;;9.61
76901;BMP280;65859;43.020;25.096;2024-02-26T05:57:26;98820.50;;;9.85
76901;BMP280;65859;43.020;25.096;2024-02-26T05:59:52;98828.91;;;9.66
76901;BMP280;65859;43.020;25.096;2024-02-26T06:02:18;98840.28;;;9.45
76901;BMP280;65859;43.020;25.096;2024-02-26T06:04:44;98838.59;;;9.41
76901;BMP280;65859;43.020;25.096;2024-02-26T06:07:12;98838.03;;;9.56
76901;BMP280;65859;43.020;25.096;2024-02-26T06:09:38;98839.78;;;9.23
76901;BMP280;65859;43.020;25.096;2024-02-26T06:12:05;98830.66;;;9.11
76901;BMP280;65859;43.020;25.096;2024-02-26T06:14:32;98841.06;;;9.67
76901;BMP280;65859;43.020;25.096;2024-02-26T06:16:58;98845.56;;;9.25
76901;BMP280;65859;43.020;25.096;2024-02-26T06:19:24;98841.72;;;9.13
76901;BMP280;65859;43.020;25.096;2024-02-26T06:21:50;98842.59;;;9.47
76901;BMP280;65859;43.020;25.096;2024-02-26T06:24:17;98848.47;;;9.32
76901;BMP280;65859;43.020;25.096;2024-02-26T06:26:43;98847.19;;;9.38
76901;BMP280;65859;43.020;25.096;2024-02-26T06:29:11;98857.31;;;9.36
76901;BMP280;65859;43.020;25.096;2024-02-26T06:31:37;98858.59;;;9.00
76901;BMP280;65859;43.020;25.096;2024-02-26T06:34:03;98852.56;;;8.91
76901;BMP280;65859;43.020;25.096;2024-02-26T06:36:30;98851.56;;;9.04
76901;BMP280;65859;43.020;25.096;2024-02-26T06:38:58;98849.72;;;9.05
76901;BMP280;65859;43.020;25.096;2024-02-26T06:41:24;98847.84;;;9.26
76901;BMP280;65859;43.020;25.096;2024-02-26T06:43:55;98850.84;;;9.25
76901;BMP280;65859;43.020;25.096;2024-02-26T06:46:22;98853.31;;;9.71
76901;BMP280;65859;43.020;25.096;2024-02-26T06:48:49;98865.22;;;9.86
76901;BMP280;65859;43.020;25.096;2024-02-26T06:51:16;98863.06;;;10.01
76901;BMP280;65859;43.020;25.096;2024-02-26T06:53:42;98861.72;;;9.73
76901;BMP280;65859;43.020;25.096;2024-02-26T06:56:08;98855.44;;;9.99
76901;BMP280;65859;43.020;25.096;2024-02-26T06:58:34;98852.13;;;10.35
76901;BMP280;65859;43.020;25.096;2024-02-26T07:01:02;98856.31;;;10.36
76901;BMP280;65859;43.020;25.096;2024-02-26T07:03:28;98859.69;;;10.12
76901;BMP280;65859;43.020;25.096;2024-02-26T07:05:55;98860.78;;;10.11
76901;BMP280;65859;43.020;25.096;2024-02-26T07:08:21;98868.97;;;10.18
76901;BMP280;65859;43.020;25.096;2024-02-26T07:10:48;98863.88;;;10.59
76901;BMP280;65859;43.020;25.096;2024-02-26T07:13:14;98861.81;;;10.76
76901;BMP280;65859;43.020;25.096;2024-02-26T07:15:40;98867.16;;;10.89
76901;BMP280;65859;43.020;25.096;2024-02-26T07:18:06;98860.13;;;10.84
76901;BMP280;65859;43.020;25.096;2024-02-26T07:20:33;98869.78;;;11.01
76901;BMP280;65859;43.020;25.096;2024-02-26T07:22:59;98871.66;;;11.00
76901;BMP280;65859;43.020;25.096;2024-02-26T07:25:25;98864.47;;;11.25
76901;BMP280;65859;43.020;25.096;2024-02-26T07:27:51;98862.81;;;11.08
76901;BMP280;65859;43.020;25.096;2024-02-26T07:30:18;98876.31;;;11.03
76901;BMP280;65859;43.020;25.096;2024-02-26T07:32:45;98870.66;;;10.80
76901;BMP280;65859;43.020;25.096;2024-02-26T07:35:12;98868.09;;;11.21
76901;BMP280;65859;43.020;25.096;2024-02-26T07:37:38;98871.19;;;11.35
76901;BMP280;65859;43.020;25.096;2024-02-26T07:40:04;98870.50;;;11.38
76901;BMP280;65859;43.020;25.096;2024-02-26T07:42:31;98875.47;;;11.52
76901;BMP280;65859;43.020;25.096;2024-02-26T07:44:58;98874.13;;;11.46
76901;BMP280;65859;43.020;25.096;2024-02-26T07:47:24;98872.34;;;11.62
76901;BMP280;65859;43.020;25.096;2024-02-26T07:49:50;98864.91;;;11.96
76901;BMP280;65859;43.020;25.096;2024-02-26T07:52:17;98866.97;;;12.02
76901;BMP280;65859;43.020;25.096;2024-02-26T07:54:43;98868.19;;;12.20
76901;BMP280;65859;43.020;25.096;2024-02-26T07:57:09;98868.16;;;12.17
76901;BMP280;65859;43.020;25.096;2024-02-26T07:59:35;98871.16;;;12.31
76901;BMP280;65859;43.020;25.096;2024-02-26T08:02:02;98872.34;;;12.81
76901;BMP280;65859;43.020;25.096;2024-02-26T08:04:30;98872.78;;;12.67
76901;BMP280;65859;43.020;25.096;2024-02-26T08:06:57;98869.84;;;12.88
76901;BMP280;65859;43.020;25.096;2024-02-26T08:09:23;98881.47;;;13.15
76901;BMP280;65859;43.020;25.096;2024-02-26T08:11:49;98875.75;;;13.13
76901;BMP280;65859;43.020;25.096;2024-02-26T08:14:16;98879.63;;;13.00
76901;BMP280;65859;43.020;25.096;2024-02-26T08:16:42;98876.22;;;13.19
76901;BMP280;65859;43.020;25.096;2024-02-26T08:19:08;98880.47;;;13.78
76901;BMP280;65859;43.020;25.096;2024-02-26T08:21:36;98874.56;;;13.88
76901;BMP280;65859;43.020;25.096;2024-02-26T08:24:02;98875.59;;;14.26
76901;BMP280;65859;43.020;25.096;2024-02-26T08:26:29;98879.84;;;14.27
76901;BMP280;65859;43.020;25.096;2024-02-26T08:28:55;98874.44;;;14.72
76901;BMP280;65859;43.020;25.096;2024-02-26T08:31:21;98871.50;;;14.81
76901;BMP280;65859;43.020;25.096;2024-02-26T08:33:49;98879.81;;;15.02
76901;BMP280;65859;43.020;25.096;2024-02-26T08:36:15;98876.41;;;15.06
76901;BMP280;65859;43.020;25.096;2024-02-26T08:38:42;98876.44;;;15.36
76901;BMP280;65859;43.020;25.096;2024-02-26T08:41:08;98874.31;;;15.18
76901;BMP280;65859;43.020;25.096;2024-02-26T08:43:34;98875.19;;;15.26
76901;BMP280;65859;43.020;25.096;2024-02-26T08:46:01;98873.53;;;15.48
76901;BMP280;65859;43.020;25.096;2024-02-26T08:48:27;98859.00;;;15.45
76901;BMP280;65859;43.020;25.096;2024-02-26T08:50:53;98880.09;;;15.54
76901;BMP280;65859;43.020;25.096;2024-02-26T08:53:20;98867.59;;;15.65
76901;BMP280;65859;43.020;25.096;2024-02-26T08:55:47;98863.91;;;15.77
76901;BMP280;65859;43.020;25.096;2024-02-26T08:58:13;98866.53;;;16.10
76901;BMP280;65859;43.020;25.096;2024-02-26T09:00:39;98876.22;;;16.26
76901;BMP280;65859;43.020;25.096;2024-02-26T09:03:05;98873.19;;;16.93
76901;BMP280;65859;43.020;25.096;2024-02-26T09:05:31;98884.56;;;17.55
76901;BMP280;65859;43.020;25.096;2024-02-26T09:07:59;98888.63;;;19.24
76901;BMP280;65859;43.020;25.096;2024-02-26T09:10:25;98893.31;;;22.03
76901;BMP280;65859;43.020;25.096;2024-02-26T09:12:52;98885.78;;;21.90
76901;BMP280;65859;43.020;25.096;2024-02-26T09:15:18;98890.34;;;21.47
76901;BMP280;65859;43.020;25.096;2024-02-26T09:17:44;98896.13;;;21.45
76901;BMP280;65859;43.020;25.096;2024-02-26T09:20:12;98893.75;;;23.85
76901;BMP280;65859;43.020;25.096;2024-02-26T09:22:40;98901.97;;;25.44
76901;BMP280;65859;43.020;25.096;2024-02-26T09:25:08;98899.38;;;26.93
76901;BMP280;65859;43.020;25.096;2024-02-26T09:27:34;98904.97;;;29.06
76901;BMP280;65859;43.020;25.096;2024-02-26T09:30:01;98908.94;;;28.11
76901;BMP280;65859;43.020;25.096;2024-02-26T09:32:27;98906.88;;;26.40
76901;BMP280;65859;43.020;25.096;2024-02-26T09:34:53;98900.25;;;27.31
76901;BMP280;65859;43.020;25.096;2024-02-26T09:37:20;98898.50;;;24.93
76901;BMP280;65859;43.020;25.096;2024-02-26T09:39:47;98896.47;;;24.97
76901;BMP280;65859;43.020;25.096;2024-02-26T09:42:14;98900.75;;;23.82
76901;BMP280;65859;43.020;25.096;2024-02-26T09:44:41;98900.03;;;24.40
76901;BMP280;65859;43.020;25.096;2024-02-26T09:47:14;98900.00;;;25.92
76901;BMP280;65859;43.020;25.096;2024-02-26T09:49:43;98895.59;;;29.21
76901;BMP280;65859;43.020;25.096;2024-02-26T09:52:09;98890.44;;;25.87
76901;BMP280;65859;43.020;25.096;2024-02-26T09:54:36;98897.63;;;25.21
76901;BMP280;65859;43.020;25.096;2024-02-26T09:57:03;98894.53;;;25.57
76901;BMP280;65859;43.020;25.096;2024-02-26T09:59:36;98892.72;;;24.66
76901;BMP280;65859;43.020;25.096;2024-02-26T10:02:06;98893.47;;;23.96
76901;BMP280;65859;43.020;25.096;2024-02-26T10:04:34;98882.16;;;23.52
76901;BMP280;65859;43.020;25.096;2024-02-26T10:07:01;98897.91;;;23.41
76901;BMP280;65859;43.020;25.096;2024-02-26T10:09:30;98878.41;;;24.36
76901;BMP280;65859;43.020;25.096;2024-02-26T10:11:58;98867.06;;;24.54
76901;BMP280;65859;43.020;25.096;2024-02-26T10:14:25;98879.94;;;23.14
76901;BMP280;65859;43.020;25.096;2024-02-26T10:16:51;98877.66;;;24.36
76901;BMP280;65859;43.020;25.096;2024-02-26T10:19:31;98852.09;;;22.78
76901;BMP280;65859;43.020;25.096;2024-02-26T10:21:58;98851.78;;;21.70
76901;BMP280;65859;43.020;25.096;2024-02-26T10:24:28;98837.66;;;21.35
76901;BMP280;65859;43.020;25.096;2024-02-26T10:26:55;98835.13;;;22.38
76901;BMP280;65859;43.020;25.096;2024-02-26T10:29:23;98807.94;;;21.08
76901;BMP280;65859;43.020;25.096;2024-02-26T10:31:51;98812.16;;;20.52
76901;BMP280;65859;43.020;25.096;2024-02-26T10:34:18;98828.75;;;21.11
76901;BMP280;65859;43.020;25.096;2024-02-26T10:36:45;98816.53;;;21.53
76901;BMP280;65859;43.020;25.096;2024-02-26T10:39:14;98815.59;;;20.56
76901;BMP280;65859;43.020;25.096;2024-02-26T10:41:44;98810.16;;;19.88
76901;BMP280;65859;43.020;25.096;2024-02-26T10:44:14;98814.91;;;20.10
76901;BMP280;65859;43.020;25.096;2024-02-26T10:46:41;98813.91;;;20.69
76901;BMP280;65859;43.020;25.096;2024-02-26T10:49:14;98808.19;;;20.94
76901;BMP280;65859;43.020;25.096;2024-02-26T10:51:59;98806.34;;;20.23
76901;BMP280;65859;43.020;25.096;2024-02-26T10:54:27;98793.56;;;20.27
76901;BMP280;65859;43.020;25.096;2024-02-26T10:56:56;98801.88;;;20.05
76901;BMP280;65859;43.020;25.096;2024-02-26T10:59:24;98804.84;;;20.52
76901;BMP280;65859;43.020;25.096;2024-02-26T11:01:51;98799.81;;;20.85
76901;BMP280;65859;43.020;25.096;2024-02-26T11:04:17;98786.66;;;20.60
76901;BMP280;65859;43.020;25.096;2024-02-26T11:06:45;98794.94;;;20.42
76901;BMP280;65859;43.020;25.096;2024-02-26T11:09:14;98820.22;;;22.49
76901;BMP280;65859;43.020;25.096;2024-02-26T11:11:41;98843.22;;;25.00
76901;BMP280;65859;43.020;25.096;2024-02-26T11:14:09;98870.69;;;26.71
76901;BMP280;65859;43.020;25.096;2024-02-26T11:16:38;98855.41;;;27.22
76901;BMP280;65859;43.020;25.096;2024-02-26T11:19:08;98820.75;;;27.23
76901;BMP280;65859;43.020;25.096;2024-02-26T11:21:35;98853.22;;;25.15
76901;BMP280;65859;43.020;25.096;2024-02-26T11:24:12;98832.03;;;28.64
76901;BMP280;65859;43.020;25.096;2024-02-26T11:26:50;98818.88;;;24.04
76901;BMP280;65859;43.020;25.096;2024-02-26T11:29:37;98805.94;;;23.66
76901;BMP280;65859;43.020;25.096;2024-02-26T11:32:05;98825.69;;;23.96
76901;BMP280;65859;43.020;25.096;2024-02-26T11:34:32;98825.31;;;23.81
76901;BMP280;65859;43.020;25.096;2024-02-26T11:37:13;98819.16;;;28.55
76901;BMP280;65859;43.020;25.096;2024-02-26T11:39:43;98801.31;;;25.48
76901;BMP280;65859;43.020;25.096;2024-02-26T11:42:17;98821.56;;;23.75
76901;BMP280;65859;43.020;25.096;2024-02-26T11:44:44;98793.81;;;24.79
76901;BMP280;65859;43.020;25.096;2024-02-26T11:47:19;98773.66;;;23.10
76901;BMP280;65859;43.020;25.096;2024-02-26T11:49:46;98778.47;;;21.21
76901;BMP280;65859;43.020;25.096;2024-02-26T11:52:14;98774.63;;;20.68
76901;BMP280;65859;43.020;25.096;2024-02-26T11:54:53;98778.41;;;22.14
76901;BMP280;65859;43.020;25.096;2024-02-26T11:59:57;98751.91;;;21.43
76901;BMP280;65859;43.020;25.096;2024-02-26T12:02:52;98758.41;;;21.88
76901;BMP280;65859;43.020;25.096;2024-02-26T12:05:24;98769.25;;;22.48
76901;BMP280;65859;43.020;25.096;2024-02-26T12:08:03;98746.91;;;21.18
76901;BMP280;65859;43.020;25.096;2024-02-26T12:10:37;98746.66;;;20.55
76901;BMP280;65859;43.020;25.096;2024-02-26T12:13:10;98747.56;;;20.71
76901;BMP280;65859;43.020;25.096;2024-02-26T12:18:18;98741.53;;;20.91
76901;BMP280;65859;43.020;25.096;2024-02-26T12:20:44;98751.09;;;21.22
76901;BMP280;65859;43.020;25.096;2024-02-26T12:23:15;98753.19;;;21.11
76901;BMP280;65859;43.020;25.096;2024-02-26T12:25:44;98749.19;;;20.69
76901;BMP280;65859;43.020;25.096;2024-02-26T12:28:10;98746.81;;;20.40
76901;BMP280;65859;43.020;25.096;2024-02-26T12:30:37;98749.81;;;20.16
76901;BMP280;65859;43.020;25.096;2024-02-26T12:33:03;98746.28;;;20.22
76901;BMP280;65859;43.020;25.096;2024-02-26T12:35:30;98736.56;;;19.94
76901;BMP280;65859;43.020;25.096;2024-02-26T12:37:58;98752.75;;;19.91
76901;BMP280;65859;43.020;25.096;2024-02-26T12:40:26;98735.88;;;19.87
76901;BMP280;65859;43.020;25.096;2024-02-26T12:42:54;98742.59;;;20.05
76901;BMP280;65859;43.020;25.096;2024-02-26T12:45:21;98733.31;;;20.14
76901;BMP280;65859;43.020;25.096;2024-02-26T12:47:48;98740.91;;;19.85
76901;BMP280;65859;43.020;25.096;2024-02-26T12:50:18;98727.59;;;19.67
76901;BMP280;65859;43.020;25.096;2024-02-26T12:52:46;98732.84;;;19.81
76901;BMP280;65859;43.020;25.096;2024-02-26T12:55:18;98732.38;;;19.90
76901;BMP280;65859;43.020;25.096;2024-02-26T12:57:47;98742.69;;;19.98
76901;BMP280;65859;43.020;25.096;2024-02-26T13:00:22;98745.13;;;19.86
76901;BMP280;65859;43.020;25.096;2024-02-26T13:02:50;98740.63;;;19.72
76901;BMP280;65859;43.020;25.096;2024-02-26T13:05:18;98745.44;;;19.50
76901;BMP280;65859;43.020;25.096;2024-02-26T13:07:46;98730.91;;;19.44
76901;BMP280;65859;43.020;25.096;2024-02-26T13:10:13;98739.28;;;19.53
76901;BMP280;65859;43.020;25.096;2024-02-26T13:12:49;98739.72;;;19.48
76901;BMP280;65859;43.020;25.096;2024-02-26T13:15:22;98741.31;;;19.38
76901;BMP280;65859;43.020;25.096;2024-02-26T13:17:49;98733.56;;;19.47
76901;BMP280;65859;43.020;25.096;2024-02-26T13:20:29;98745.84;;;19.48
76901;BMP280;65859;43.020;25.096;2024-02-26T13:23:03;98746.50;;;19.60
76901;BMP280;65859;43.020;25.096;2024-02-26T13:25:31;98751.25;;;19.48
76901;BMP280;65859;43.020;25.096;2024-02-26T13:28:16;98754.75;;;19.38
76901;BMP280;65859;43.020;25.096;2024-02-26T13:30:51;98757.50;;;19.28
76901;BMP280;65859;43.020;25.096;2024-02-26T13:33:18;98747.41;;;19.42
76901;BMP280;65859;43.020;25.096;2024-02-26T13:35:46;98756.25;;;19.43
76901;BMP280;65859;43.020;25.096;2024-02-26T13:38:12;98755.91;;;19.37
76901;BMP280;65859;43.020;25.096;2024-02-26T13:40:38;98760.22;;;19.28
76901;BMP280;65859;43.020;25.096;2024-02-26T13:43:08;98767.06;;;19.36
76901;BMP280;65859;43.020;25.096;2024-02-26T13:45:38;98768.25;;;19.31
76901;BMP280;65859;43.020;25.096;2024-02-26T13:48:11;98756.66;;;19.41
76901;BMP280;65859;43.020;25.096;2024-02-26T13:50:38;98749.78;;;19.37
76901;BMP280;65859;43.020;25.096;2024-02-26T13:53:05;98765.25;;;19.22
76901;BMP280;65859;43.020;25.096;2024-02-26T13:55:32;98762.13;;;19.31
76901;BMP280;65859;43.020;25.096;2024-02-26T13:57:59;98761.38;;;19.30
76901;BMP280;65859;43.020;25.096;2024-02-26T14:00:29;98765.97;;;19.26
76901;BMP280;65859;43.020;25.096;2024-02-26T14:02:58;98757.53;;;19.24
76901;BMP280;65859;43.020;25.096;2024-02-26T14:05:24;98762.97;;;19.17
76901;BMP280;65859;43.020;25.096;2024-02-26T14:07:51;98773.78;;;19.06